Time;durP1;ratioP1;P1;durP2;ratioP2;P2;SDS_P1;SDS_P2;PMS_P1;PMS_P2;Temp;Humidity;BMP_temperature;BMP_pressure;BME280_temperature;BME280_humidity;BME280_pressure;Samples;Min_cycle;Max_cycle;Signal;HPM_P1;HPM_P2
2023/02/07 00:00:16;;;;;;;15.97;5.97;;;-0.50;99.90;;;;;;5062164;28;20056;-65
2023/02/07 00:02:43;;;;;;;15.43;6.23;;;-0.50;99.90;;;;;;5059223;28;20049;-66
2023/02/07 00:05:10;;;;;;;15.23;5.77;;;-0.50;99.90;;;;;;5062963;28;20028;-65
2023/02/07 00:07:36;;;;;;;14.37;5.67;;;-0.40;99.90;;;;;;5048836;28;20580;-66
2023/02/07 00:10:01;;;;;;;13.63;5.63;;;-0.50;99.90;;;;;;5062221;28;20028;-66
2023/02/07 00:12:27;;;;;;;12.97;5.43;;;-0.60;99.90;;;;;;5067901;28;20115;-64
2023/02/07 00:14:53;;;;;;;14.17;5.77;;;-0.60;99.90;;;;;;5062778;28;20447;-65
2023/02/07 00:17:18;;;;;;;16.20;5.87;;;-0.70;99.90;;;;;;5065817;28;20082;-66
2023/02/07 00:19:44;;;;;;;14.13;6.00;;;-0.80;99.90;;;;;;5063703;28;20031;-67
2023/02/07 00:22:09;;;;;;;17.53;6.17;;;-0.80;99.90;;;;;;5066005;28;20773;-67
2023/02/07 00:24:35;;;;;;;14.50;6.73;;;-0.80;99.90;;;;;;5064554;28;20031;-64
2023/02/07 00:27:01;;;;;;;19.50;6.23;;;-0.80;99.90;;;;;;5062601;28;20488;-66
2023/02/07 00:29:26;;;;;;;19.63;6.43;;;-0.80;99.90;;;;;;5048813;22;20477;-65
2023/02/07 00:31:52;;;;;;;12.27;5.60;;;-0.90;99.90;;;;;;4992609;28;20073;-65
2023/02/07 00:34:17;;;;;;;10.73;5.37;;;-0.90;99.90;;;;;;5004594;28;20018;-65
2023/02/07 00:36:43;;;;;;;14.43;5.90;;;-0.90;99.90;;;;;;4999948;28;20091;-63
2023/02/07 00:39:15;;;;;;;15.00;6.40;;;-0.90;99.90;;;;;;5005256;28;20046;-67
2023/02/07 00:41:42;;;;;;;14.87;6.27;;;-0.90;99.90;;;;;;4988418;28;20125;-69
2023/02/07 00:44:07;;;;;;;14.23;6.57;;;-0.90;99.90;;;;;;5001996;28;20025;-63
2023/02/07 00:46:34;;;;;;;11.07;5.77;;;-1.00;99.90;;;;;;5010537;28;20087;-63
2023/02/07 00:49:00;;;;;;;14.47;5.10;;;-1.10;99.90;;;;;;5012263;28;20064;-65
2023/02/07 00:51:26;;;;;;;9.97;4.80;;;-1.10;99.90;;;;;;5012127;28;20045;-66
2023/02/07 00:53:53;;;;;;;14.23;5.80;;;-1.10;99.90;;;;;;5009598;28;20033;-64
2023/02/07 00:56:21;;;;;;;12.57;5.50;;;-1.10;99.90;;;;;;5010111;28;20030;-64
2023/02/07 00:58:46;;;;;;;12.60;6.37;;;-1.10;99.90;;;;;;4991514;28;20033;-64
2023/02/07 01:01:12;;;;;;;11.60;5.67;;;-1.20;99.90;;;;;;5006886;28;20033;-64
2023/02/07 01:03:38;;;;;;;14.73;6.10;;;-1.20;99.90;;;;;;5010380;28;20099;-64
2023/02/07 01:06:04;;;;;;;15.63;5.40;;;-1.20;99.90;;;;;;5005972;28;20068;-64
2023/02/07 01:08:30;;;;;;;12.67;5.70;;;-1.30;99.90;;;;;;4984597;28;20112;-64
2023/02/07 01:10:56;;;;;;;10.63;5.17;;;-1.30;99.90;;;;;;5000868;28;20156;-64
2023/02/07 01:13:22;;;;;;;14.73;5.97;;;-1.30;99.90;;;;;;4998236;28;20040;-64
2023/02/07 01:15:48;;;;;;;13.73;6.07;;;-1.30;99.90;;;;;;4980046;28;20048;-64
2023/02/07 01:18:15;;;;;;;14.47;5.77;;;-1.40;99.90;;;;;;4985318;28;20116;-64
2023/02/07 01:20:41;;;;;;;13.23;5.60;;;-1.50;99.90;;;;;;4984283;28;20034;-63
2023/02/07 01:23:07;;;;;;;15.10;5.67;;;-1.50;99.90;;;;;;4981519;28;20026;-64
2023/02/07 01:25:33;;;;;;;13.03;5.70;;;-1.50;99.90;;;;;;4986507;28;20082;-64
2023/02/07 01:27:58;;;;;;;10.30;6.10;;;-1.50;99.90;;;;;;5001335;28;20512;-64
2023/02/07 01:30:24;;;;;;;11.27;5.40;;;-1.50;99.90;;;;;;5004311;28;20025;-62
2023/02/07 01:32:49;;;;;;;15.03;6.83;;;-1.60;99.90;;;;;;4984888;28;20027;-63
2023/02/07 01:35:15;;;;;;;12.50;5.23;;;-1.60;99.90;;;;;;4995593;28;20026;-63
2023/02/07 01:37:41;;;;;;;16.43;6.37;;;-1.70;99.90;;;;;;5002382;28;20489;-64
2023/02/07 01:40:07;;;;;;;20.17;5.93;;;-1.70;99.90;;;;;;4985790;28;20121;-63
2023/02/07 01:42:32;;;;;;;16.13;5.93;;;-1.70;99.90;;;;;;5001274;28;20029;-64
2023/02/07 01:45:00;;;;;;;15.37;5.67;;;-1.70;99.90;;;;;;4998463;28;20172;-64
2023/02/07 01:47:27;;;;;;;15.40;6.03;;;-1.70;99.90;;;;;;4988408;28;20026;-64
2023/02/07 01:49:56;;;;;;;15.37;5.50;;;-1.60;99.90;;;;;;5006636;28;20121;-65
2023/02/07 01:52:28;;;;;;;16.10;5.27;;;-1.60;99.90;;;;;;5006420;28;20057;-65
2023/02/07 01:54:58;;;;;;;16.20;4.47;;;-1.60;99.90;;;;;;4986727;28;20076;-65
2023/02/07 01:57:24;;;;;;;13.93;5.73;;;-1.60;99.90;;;;;;4998708;28;20037;-63
2023/02/07 01:59:54;;;;;;;12.87;4.60;;;-1.70;99.90;;;;;;4997534;28;20038;-63
2023/02/07 02:02:22;;;;;;;11.50;5.47;;;-1.60;99.90;;;;;;5000880;28;20027;-64
2023/02/07 02:04:52;;;;;;;13.40;5.87;;;-1.70;99.90;;;;;;5006305;28;20079;-65
2023/02/07 02:07:18;;;;;;;9.23;4.93;;;-1.70;99.90;;;;;;4982613;28;20614;-65
2023/02/07 02:09:44;;;;;;;8.33;4.03;;;-1.70;99.90;;;;;;4979722;28;20034;-64
2023/02/07 02:12:28;;;;;;;12.90;4.80;;;-1.60;99.90;;;;;;4999307;28;20045;-64
2023/02/07 02:15:12;;;;;;;12.00;5.28;;;-1.50;99.90;;;;;;4996925;28;20041;-64
2023/02/07 02:17:59;;;;;;;9.05;4.90;;;-1.50;99.90;;;;;;5000987;28;20112;-64
2023/02/07 02:20:50;;;;;;;11.07;5.00;;;-1.50;99.90;;;;;;4998570;28;20076;-64
2023/02/07 02:24:00;;;;;;;9.97;4.13;;;-1.60;99.90;;;;;;5001435;28;20509;-63
2023/02/07 02:26:43;;;;;;;12.63;4.43;;;-1.60;99.90;;;;;;4964678;28;20034;-64
2023/02/07 02:29:37;;;;;;;6.57;3.83;;;-1.60;99.90;;;;;;5003522;28;20038;-64
2023/02/07 02:32:02;;;;;;;8.33;3.73;;;-1.60;99.90;;;;;;5005924;28;20413;-64
2023/02/07 02:34:56;;;;;;;9.37;4.00;;;-1.60;99.90;;;;;;5001567;28;20018;-65
2023/02/07 02:37:33;;;;;;;9.10;3.83;;;-1.60;99.90;;;;;;5002029;28;20541;-65
2023/02/07 02:40:18;;;;;;;7.27;4.53;;;-1.40;99.90;;;;;;4982552;28;20037;-65
2023/02/07 02:43:13;;;;;;;10.47;4.53;;;-1.40;99.90;;;;;;4999416;28;20030;-64
2023/02/07 02:45:44;;;;;;;6.17;3.93;;;-1.40;99.90;;;;;;4993186;28;20566;-65
2023/02/07 02:48:11;;;;;;;6.10;2.93;;;-1.50;99.90;;;;;;4984527;28;20064;-64
2023/02/07 02:50:37;;;;;;;10.70;4.03;;;-1.30;99.90;;;;;;4995923;28;20066;-64
2023/02/07 02:53:03;;;;;;;7.87;3.83;;;-1.30;99.90;;;;;;5005346;28;20061;-64
2023/02/07 02:55:56;;;;;;;9.63;4.00;;;-1.40;99.90;;;;;;5003414;28;20661;-65
2023/02/07 02:59:02;;;;;;;9.10;3.90;;;-1.50;99.90;;;;;;5007424;28;20037;-64
2023/02/07 03:01:40;;;;;;;9.43;3.47;;;-1.50;99.90;;;;;;4988186;28;20053;-65
2023/02/07 03:04:09;;;;;;;8.60;3.80;;;-1.50;99.90;;;;;;5003543;28;20037;-64
2023/02/07 03:07:05;;;;;;;6.03;3.53;;;-1.50;99.90;;;;;;5005268;28;20032;-65
2023/02/07 03:09:33;;;;;;;7.60;3.50;;;-1.50;99.90;;;;;;5005127;28;20022;-64
2023/02/07 03:12:24;;;;;;;5.43;3.20;;;-1.50;99.90;;;;;;5006612;28;20025;-64
2023/02/07 03:15:09;;;;;;;6.30;3.50;;;-1.60;99.90;;;;;;4979786;28;20037;-64
2023/02/07 03:17:50;;;;;;;8.37;3.63;;;-1.60;99.90;;;;;;4998640;28;20026;-66
2023/02/07 03:20:29;;;;;;;8.60;3.67;;;-1.70;99.90;;;;;;5003373;28;20033;-65
2023/02/07 03:22:58;;;;;;;9.33;3.90;;;-1.80;99.90;;;;;;5005034;28;20033;-64
2023/02/07 03:25:26;;;;;;;7.40;3.40;;;-1.80;99.90;;;;;;4989834;28;20461;-64
2023/02/07 03:27:53;;;;;;;8.90;3.87;;;-1.90;99.90;;;;;;5006995;28;20126;-64
2023/02/07 03:30:21;;;;;;;8.17;3.13;;;-1.90;99.90;;;;;;4989103;28;20116;-65
2023/02/07 03:32:54;;;;;;;6.03;3.70;;;-1.90;99.90;;;;;;4986605;28;20031;-64
2023/02/07 03:35:34;;;;;;;7.47;3.23;;;-2.00;99.90;;;;;;4986424;28;20026;-64
2023/02/07 03:38:02;;;;;;;7.83;2.43;;;-2.00;99.90;;;;;;4990545;28;20034;-64
2023/02/07 03:40:39;;;;;;;13.83;3.90;;;-2.00;99.90;;;;;;5004159;28;20026;-64
2023/02/07 03:43:07;;;;;;;5.70;3.13;;;-2.00;99.90;;;;;;5005728;28;20034;-64
2023/02/07 03:45:33;;;;;;;6.27;2.80;;;-1.80;99.90;;;;;;5006705;28;20030;-64
2023/02/07 03:47:59;;;;;;;9.87;3.03;;;-1.60;99.90;;;;;;4973892;28;20452;-63
2023/02/07 03:50:24;;;;;;;6.80;3.30;;;-1.40;99.90;;;;;;5006388;28;20022;-64
2023/02/07 03:52:50;;;;;;;6.40;3.37;;;-1.40;99.90;;;;;;4990820;28;20028;-64
2023/02/07 03:55:15;;;;;;;9.80;3.73;;;-1.50;99.90;;;;;;5006176;28;20080;-64
2023/02/07 03:57:41;;;;;;;6.37;3.77;;;-1.60;99.90;;;;;;5006598;28;20033;-65
2023/02/07 04:00:07;;;;;;;7.27;4.23;;;-1.60;99.90;;;;;;4985546;28;20022;-64
2023/02/07 04:02:33;;;;;;;7.43;3.37;;;-1.70;99.90;;;;;;5010373;28;20030;-64
2023/02/07 04:04:59;;;;;;;6.27;2.67;;;-1.80;99.90;;;;;;5005455;28;20026;-64
2023/02/07 04:07:24;;;;;;;7.43;2.67;;;-1.90;99.90;;;;;;5011897;28;20036;-64
2023/02/07 04:09:50;;;;;;;6.10;3.00;;;-1.90;99.90;;;;;;5007391;28;20026;-64
2023/02/07 04:12:16;;;;;;;8.40;3.73;;;-2.00;99.90;;;;;;5012221;28;20026;-64
2023/02/07 04:14:41;;;;;;;6.37;3.00;;;-2.10;99.90;;;;;;4990838;28;20028;-63
2023/02/07 04:17:07;;;;;;;8.37;3.83;;;-2.10;99.90;;;;;;4992329;28;20030;-64
2023/02/07 04:19:32;;;;;;;5.33;3.17;;;-2.10;99.90;;;;;;5006189;28;20057;-64
2023/02/07 04:21:58;;;;;;;6.50;3.20;;;-2.00;99.90;;;;;;5010838;28;20061;-67
2023/02/07 04:24:23;;;;;;;4.90;2.80;;;-1.90;99.90;;;;;;5007798;28;20030;-63
2023/02/07 04:26:49;;;;;;;8.90;3.23;;;-1.80;99.90;;;;;;4992027;28;20053;-64
2023/02/07 04:29:15;;;;;;;6.10;3.10;;;-1.80;99.90;;;;;;4993442;28;20026;-63
2023/02/07 04:31:41;;;;;;;6.53;2.80;;;-1.70;99.90;;;;;;4994561;28;20029;-64
2023/02/07 04:34:08;;;;;;;5.90;3.10;;;-1.60;99.90;;;;;;5009137;28;20025;-64
2023/02/07 04:36:34;;;;;;;7.13;3.20;;;-1.60;99.90;;;;;;5005886;28;20022;-63
2023/02/07 04:38:59;;;;;;;5.07;2.97;;;-1.60;99.90;;;;;;5002396;28;20044;-64
2023/02/07 04:41:25;;;;;;;6.83;3.23;;;-1.60;99.90;;;;;;5011149;28;20105;-65
2023/02/07 04:43:51;;;;;;;4.57;2.83;;;-1.60;99.90;;;;;;5005906;28;20064;-64
2023/02/07 04:46:16;;;;;;;5.53;3.13;;;-1.60;99.90;;;;;;5010488;28;20101;-63
2023/02/07 04:48:42;;;;;;;10.10;3.23;;;-1.70;99.90;;;;;;5002534;28;20040;-64
2023/02/07 04:51:07;;;;;;;5.47;3.20;;;-1.70;99.90;;;;;;5009442;28;20022;-64
2023/02/07 04:53:33;;;;;;;7.27;3.33;;;-1.70;99.90;;;;;;5007999;28;20443;-63
2023/02/07 04:55:59;;;;;;;6.40;2.73;;;-1.70;99.90;;;;;;5010393;28;20018;-64
2023/02/07 04:58:25;;;;;;;7.60;2.90;;;-1.70;99.90;;;;;;5007123;28;20041;-64
2023/02/07 05:00:52;;;;;;;5.97;2.90;;;-1.70;99.90;;;;;;5010546;28;20025;-66
2023/02/07 05:03:18;;;;;;;7.17;2.50;;;-1.70;99.90;;;;;;5006851;28;20045;-64
2023/02/07 05:05:44;;;;;;;11.93;3.57;;;-1.70;99.90;;;;;;5008795;28;20076;-65
2023/02/07 05:08:11;;;;;;;6.60;3.00;;;-1.70;99.90;;;;;;5006203;28;20026;-63
2023/02/07 05:10:38;;;;;;;6.70;3.47;;;-1.70;99.90;;;;;;5008312;28;20029;-64
2023/02/07 05:13:04;;;;;;;4.97;2.60;;;-1.80;99.90;;;;;;5011195;28;20025;-64
2023/02/07 05:15:30;;;;;;;5.07;2.70;;;-1.80;99.90;;;;;;4991036;28;20679;-65
2023/02/07 05:17:56;;;;;;;6.23;2.90;;;-1.80;99.90;;;;;;5010254;28;20144;-64
2023/02/07 05:20:23;;;;;;;7.93;3.30;;;-1.90;99.90;;;;;;5008246;28;20037;-64
2023/02/07 05:22:49;;;;;;;6.53;3.40;;;-1.90;99.90;;;;;;4990725;28;20029;-65
2023/02/07 05:25:15;;;;;;;10.20;3.87;;;-2.00;99.90;;;;;;5009871;28;20029;-64
2023/02/07 05:27:41;;;;;;;7.33;3.97;;;-2.00;99.90;;;;;;5007630;28;20030;-64
2023/02/07 05:30:08;;;;;;;10.03;3.50;;;-2.00;99.90;;;;;;5010562;28;20053;-64
2023/02/07 05:35:17;;;;;;;9.85;3.85;;;-1.90;99.90;;;;;;5002879;28;20504;-64
2023/02/07 05:37:43;;;;;;;8.53;3.37;;;-2.00;99.90;;;;;;5009706;28;20042;-64
2023/02/07 05:40:09;;;;;;;11.13;3.83;;;-1.90;99.90;;;;;;5006644;28;20034;-65
2023/02/07 05:42:35;;;;;;;10.20;3.67;;;-1.90;99.90;;;;;;5009491;28;20043;-65
2023/02/07 05:45:01;;;;;;;6.90;3.47;;;-1.90;99.90;;;;;;5007281;28;20029;-64
2023/02/07 05:47:26;;;;;;;5.63;2.90;;;-1.90;99.90;;;;;;5008700;28;20053;-63
2023/02/07 05:49:52;;;;;;;8.17;3.33;;;-1.90;99.90;;;;;;5005113;28;20030;-63
2023/02/07 05:52:18;;;;;;;5.97;2.87;;;-1.90;99.90;;;;;;5010335;28;20030;-65
2023/02/07 05:54:43;;;;;;;4.97;3.13;;;-1.90;99.90;;;;;;5008689;28;20101;-63
2023/02/07 05:57:09;;;;;;;7.77;2.87;;;-1.90;99.90;;;;;;5007082;28;20525;-65
2023/02/07 05:59:34;;;;;;;9.53;3.90;;;-1.90;99.90;;;;;;5007956;28;20083;-64
2023/02/07 06:02:00;;;;;;;6.83;3.43;;;-1.90;99.90;;;;;;5005045;28;20037;-64
2023/02/07 06:04:26;;;;;;;5.43;3.27;;;-1.90;99.90;;;;;;4988495;28;20066;-64
2023/02/07 06:06:51;;;;;;;5.07;2.63;;;-1.90;99.90;;;;;;5010793;28;20404;-65
2023/02/07 06:09:17;;;;;;;12.63;4.13;;;-1.90;99.90;;;;;;5009009;28;20033;-64
2023/02/07 06:11:43;;;;;;;6.80;3.43;;;-2.00;99.90;;;;;;5008397;28;20038;-64
2023/02/07 06:14:08;;;;;;;7.27;3.40;;;-2.00;99.90;;;;;;5008034;28;20030;-63
2023/02/07 06:16:34;;;;;;;7.13;3.67;;;-2.10;99.90;;;;;;5010735;28;20034;-64
2023/02/07 06:18:59;;;;;;;8.87;3.87;;;-2.10;99.90;;;;;;5011739;28;20026;-63
2023/02/07 06:21:25;;;;;;;5.73;3.40;;;-2.10;99.90;;;;;;5006530;28;20065;-65
2023/02/07 06:23:51;;;;;;;7.07;3.47;;;-2.10;99.90;;;;;;4991910;28;20030;-65
2023/02/07 06:26:17;;;;;;;7.83;3.77;;;-2.20;99.90;;;;;;5005622;28;20034;-64
2023/02/07 06:28:42;;;;;;;7.77;2.90;;;-2.20;99.90;;;;;;5007730;28;20112;-65
2023/02/07 06:31:08;;;;;;;6.30;3.50;;;-2.20;99.90;;;;;;5006472;28;20101;-64
2023/02/07 06:33:34;;;;;;;7.63;3.63;;;-2.20;99.90;;;;;;5009947;28;20535;-65
2023/02/07 06:35:59;;;;;;;5.80;3.30;;;-2.30;99.90;;;;;;5032882;22;20397;-64
2023/02/07 06:38:25;;;;;;;8.77;3.13;;;-2.30;99.90;;;;;;5031140;28;20072;-65
2023/02/07 06:40:50;;;;;;;9.23;3.93;;;-2.30;99.90;;;;;;5029218;28;20488;-67
2023/02/07 06:43:16;;;;;;;11.90;4.03;;;-2.40;99.90;;;;;;5022815;28;20531;-68
2023/02/07 06:45:42;;;;;;;12.97;3.70;;;-2.40;99.90;;;;;;5027779;28;20376;-67
2023/02/07 06:48:08;;;;;;;6.50;3.80;;;-2.40;99.90;;;;;;5026142;28;20034;-67
2023/02/07 06:50:34;;;;;;;8.77;4.10;;;-2.50;99.90;;;;;;5026468;28;20028;-66
2023/02/07 06:53:02;;;;;;;10.90;5.70;;;-2.50;99.90;;;;;;5026982;28;20025;-68
2023/02/07 06:55:29;;;;;;;11.07;5.87;;;-2.50;99.90;;;;;;5026991;28;20029;-67
2023/02/07 06:57:55;;;;;;;6.43;4.20;;;-2.60;99.90;;;;;;5024435;28;20078;-67
2023/02/07 07:00:21;;;;;;;7.33;3.70;;;-2.60;99.90;;;;;;5025253;28;20105;-68
2023/02/07 07:02:47;;;;;;;7.70;4.07;;;-2.60;99.90;;;;;;5025900;28;20040;-66
2023/02/07 07:05:13;;;;;;;6.37;3.73;;;-2.60;99.90;;;;;;5025816;28;20025;-66
2023/02/07 07:07:39;;;;;;;6.63;3.00;;;-2.70;99.90;;;;;;5026953;28;20064;-67
2023/02/07 07:10:06;;;;;;;8.23;3.77;;;-2.70;99.90;;;;;;5024448;28;20048;-66
2023/02/07 07:12:32;;;;;;;7.70;3.87;;;-2.60;99.90;;;;;;5025188;28;20435;-68
2023/02/07 07:14:57;;;;;;;6.47;3.57;;;-2.60;99.90;;;;;;5025387;28;20100;-68
2023/02/07 07:17:23;;;;;;;7.30;3.77;;;-2.60;99.90;;;;;;5023324;28;20508;-64
2023/02/07 07:19:48;;;;;;;9.63;4.70;;;-2.60;99.90;;;;;;5018459;28;20035;-64
2023/02/07 07:22:14;;;;;;;8.63;3.93;;;-2.60;99.90;;;;;;5030241;28;20587;-65
2023/02/07 07:24:39;;;;;;;6.57;3.80;;;-2.50;99.90;;;;;;5027370;28;20037;-66
2023/02/07 07:27:05;;;;;;;6.37;3.43;;;-2.40;99.90;;;;;;5024024;28;20029;-66
2023/02/07 07:29:31;;;;;;;5.67;3.27;;;-2.20;99.90;;;;;;5026672;28;20025;-68
2023/02/07 07:31:56;;;;;;;8.40;3.80;;;-2.20;99.90;;;;;;5027773;28;20029;-68
2023/02/07 07:34:22;;;;;;;7.57;3.83;;;-2.10;99.90;;;;;;5023432;28;20092;-66
2023/02/07 07:36:48;;;;;;;5.90;3.50;;;-2.10;99.90;;;;;;5034879;28;20033;-65
2023/02/07 07:39:13;;;;;;;6.13;3.63;;;-2.10;99.90;;;;;;5045580;28;20475;-66
2023/02/07 07:41:39;;;;;;;9.17;3.87;;;-2.10;99.90;;;;;;5048099;28;20162;-67
2023/02/07 07:44:05;;;;;;;5.50;3.47;;;-2.00;99.90;;;;;;5041527;28;20535;-67
2023/02/07 07:46:30;;;;;;;8.07;3.73;;;-2.00;99.90;;;;;;5033856;28;20017;-67
2023/02/07 07:48:56;;;;;;;7.70;3.97;;;-2.00;99.90;;;;;;5050804;28;20546;-66
2023/02/07 07:51:22;;;;;;;8.37;3.63;;;-1.90;99.90;;;;;;5045123;28;20021;-68
2023/02/07 07:53:47;;;;;;;11.23;4.30;;;-1.80;99.90;;;;;;5048360;28;20060;-68
2023/02/07 07:56:13;;;;;;;6.90;3.27;;;-1.80;99.90;;;;;;5046364;28;20021;-67
2023/02/07 07:58:39;;;;;;;7.73;4.00;;;-1.70;99.90;;;;;;5049209;28;20396;-67
2023/02/07 08:01:04;;;;;;;9.90;4.87;;;-1.60;99.90;;;;;;5027795;28;20060;-65
2023/02/07 08:03:30;;;;;;;6.63;3.70;;;-1.50;99.90;;;;;;5047914;28;20589;-65
2023/02/07 08:05:55;;;;;;;7.17;3.97;;;-1.50;99.90;;;;;;5046729;28;20024;-66
2023/02/07 08:08:21;;;;;;;7.20;3.87;;;-1.40;99.90;;;;;;5049322;28;20030;-65
2023/02/07 08:10:47;;;;;;;4.37;2.90;;;-1.40;99.90;;;;;;5049835;28;20063;-64
2023/02/07 08:13:15;;;;;;;8.40;4.33;;;-1.40;99.90;;;;;;5052139;28;20492;-68
2023/02/07 08:15:42;;;;;;;6.60;3.67;;;-1.30;99.90;;;;;;5049751;28;20017;-66
2023/02/07 08:18:07;;;;;;;7.67;4.20;;;-1.20;99.90;;;;;;5052656;28;20051;-68
2023/02/07 08:20:33;;;;;;;7.07;3.90;;;-1.20;99.90;;;;;;5046353;28;20500;-66
2023/02/07 08:22:58;;;;;;;6.73;3.63;;;-1.10;99.90;;;;;;5050728;28;20043;-65
2023/02/07 08:25:24;;;;;;;6.47;3.80;;;-1.00;99.90;;;;;;5052468;28;20107;-65
2023/02/07 08:27:50;;;;;;;8.40;4.30;;;-1.00;99.90;;;;;;5051671;28;20033;-64
2023/02/07 08:30:17;;;;;;;5.93;3.37;;;-0.90;99.90;;;;;;5049967;28;20024;-66
2023/02/07 08:32:43;;;;;;;5.83;3.33;;;-0.80;99.90;;;;;;5049700;28;20036;-64
2023/02/07 08:35:09;;;;;;;7.67;3.93;;;-0.70;99.90;;;;;;5049692;28;20028;-66
2023/02/07 08:37:35;;;;;;;7.27;3.93;;;-0.60;99.90;;;;;;5046989;28;20029;-64
2023/02/07 08:40:01;;;;;;;7.30;4.07;;;-0.60;99.90;;;;;;5048418;28;20506;-65
2023/02/07 08:42:26;;;;;;;7.87;4.27;;;-0.50;99.90;;;;;;5049636;28;20503;-68
2023/02/07 08:44:52;;;;;;;6.40;4.53;;;-0.40;99.90;;;;;;5051395;28;20100;-67
2023/02/07 08:47:18;;;;;;;9.45;4.07;;;-0.40;99.90;;;;;;5045943;28;20035;-67
2023/02/07 08:49:44;;;;;;;5.83;3.93;;;-0.30;99.90;;;;;;5051986;28;20476;-65
2023/02/07 08:52:10;;;;;;;8.32;4.22;;;-0.30;99.90;;;;;;5049563;28;20025;-65
2023/02/07 08:54:36;;;;;;;9.30;4.25;;;-0.20;99.90;;;;;;5041460;28;20037;-68
2023/02/07 08:57:02;;;;;;;6.78;3.97;;;-0.20;99.90;;;;;;5048604;28;20538;-68
2023/02/07 08:59:28;;;;;;;8.40;4.30;;;-0.10;99.90;;;;;;5044552;28;20510;-67
2023/02/07 09:01:54;;;;;;;8.75;4.30;;;-0.10;99.90;;;;;;5051040;28;20013;-68
2023/02/07 09:04:19;;;;;;;8.05;4.28;;;-0.10;99.90;;;;;;5047190;28;20075;-67
2023/02/07 09:06:45;;;;;;;9.23;3.85;;;0.00;99.90;;;;;;5050664;28;20017;-68
2023/02/07 09:09:11;;;;;;;8.80;5.07;;;0.10;99.90;;;;;;5046243;28;20436;-66
2023/02/07 09:11:36;;;;;;;7.82;4.65;;;0.10;99.90;;;;;;5049894;28;20033;-66
2023/02/07 09:14:02;;;;;;;12.05;5.80;;;0.20;99.90;;;;;;5051444;28;20021;-67
2023/02/07 09:16:28;;;;;;;8.90;4.97;;;0.30;99.90;;;;;;5046661;28;20090;-68
2023/02/07 09:18:54;;;;;;;12.02;5.00;;;0.30;99.90;;;;;;5049739;28;20028;-65
2023/02/07 09:21:19;;;;;;;7.90;4.95;;;0.40;99.90;;;;;;5050181;28;20038;-65
2023/02/07 09:23:45;;;;;;;7.97;4.95;;;0.40;99.90;;;;;;5051049;28;20373;-68
2023/02/07 09:26:16;;;;;;;8.35;4.80;;;0.50;99.90;;;;;;5050490;28;20388;-66
2023/02/07 09:28:42;;;;;;;6.97;4.47;;;0.50;99.90;;;;;;5052687;28;20017;-66
2023/02/07 09:31:09;;;;;;;12.68;5.15;;;0.60;99.90;;;;;;5050240;28;20094;-65
2023/02/07 09:33:35;;;;;;;9.00;4.63;;;0.60;99.90;;;;;;5051652;28;20017;-66
2023/02/07 09:36:01;;;;;;;10.90;5.00;;;0.70;99.90;;;;;;5013724;28;20039;-65
2023/02/07 09:38:27;;;;;;;9.32;5.55;;;0.70;99.90;;;;;;5045674;28;20313;-64
2023/02/07 09:40:53;;;;;;;6.97;4.20;;;0.70;99.90;;;;;;5049073;28;20024;-65
2023/02/07 09:43:48;;;;;;;9.48;4.85;;;0.80;99.90;;;;;;5024993;28;20036;-65
2023/02/07 09:46:27;;;;;;;6.95;4.40;;;0.90;99.90;;;;;;5047703;28;20040;-65
2023/02/07 09:49:15;;;;;;;10.10;3.97;;;1.10;99.90;;;;;;5045926;28;20047;-65
2023/02/07 09:51:42;;;;;;;6.38;4.28;;;1.60;99.90;;;;;;5047473;28;20096;-65
2023/02/07 09:54:23;;;;;;;7.35;4.55;;;2.10;99.90;;;;;;5044626;28;20564;-65
2023/02/07 09:56:53;;;;;;;7.20;4.18;;;2.80;99.90;;;;;;5042933;28;20482;-65
2023/02/07 09:59:42;;;;;;;7.07;3.95;;;3.20;99.90;;;;;;5031669;28;20017;-66
2023/02/07 10:02:26;;;;;;;8.35;4.22;;;3.50;99.90;;;;;;5041303;28;20514;-65
2023/02/07 10:04:56;;;;;;;7.40;3.80;;;3.40;99.90;;;;;;5028957;28;20020;-65
2023/02/07 10:07:22;;;;;;;6.57;3.80;;;3.20;99.90;;;;;;5044921;28;20430;-65
2023/02/07 10:09:48;;;;;;;6.90;4.07;;;3.30;99.90;;;;;;5042785;28;20032;-66
2023/02/07 10:12:41;;;;;;;6.82;3.83;;;3.40;99.90;;;;;;5047227;28;20017;-67
2023/02/07 10:15:19;;;;;;;7.40;4.37;;;3.50;99.90;;;;;;5046102;28;20504;-65
2023/02/07 10:18:13;;;;;;;7.35;4.03;;;3.50;99.90;;;;;;5044829;28;20112;-65
2023/02/07 10:20:55;;;;;;;9.20;5.13;;;3.20;99.90;;;;;;5042803;28;20207;-65
2023/02/07 10:23:39;;;;;;;7.85;4.05;;;2.80;99.90;;;;;;5050467;28;20044;-65
2023/02/07 10:26:35;;;;;;;7.53;4.20;;;2.80;99.90;;;;;;5046763;28;20043;-65
2023/02/07 10:29:12;;;;;;;7.40;3.72;;;2.70;99.90;;;;;;5042206;28;20411;-64
2023/02/07 10:31:41;;;;;;;5.82;3.55;;;2.60;99.90;;;;;;5043864;28;20044;-65
2023/02/07 10:34:13;;;;;;;7.30;4.05;;;2.60;99.90;;;;;;5045812;28;20399;-65
2023/02/07 10:36:43;;;;;;;5.22;3.30;;;2.50;99.90;;;;;;5028587;28;20033;-66
2023/02/07 10:39:18;;;;;;;7.32;3.85;;;2.60;99.90;;;;;;5045590;28;20037;-66
2023/02/07 10:41:44;;;;;;;7.80;4.38;;;2.50;99.90;;;;;;5049091;28;20033;-65
2023/02/07 10:44:14;;;;;;;10.23;4.55;;;2.60;99.90;;;;;;5045889;28;20108;-66
2023/02/07 10:46:43;;;;;;;7.13;3.85;;;2.60;99.90;;;;;;5046481;28;20108;-66
2023/02/07 10:49:22;;;;;;;6.07;3.72;;;2.60;99.90;;;;;;5043029;28;20085;-66
2023/02/07 10:51:50;;;;;;;9.25;4.13;;;2.60;99.90;;;;;;5048804;28;20024;-66
2023/02/07 10:54:23;;;;;;;6.70;3.75;;;2.70;99.90;;;;;;5045745;28;20021;-66
2023/02/07 10:56:55;;;;;;;8.48;4.15;;;2.70;99.90;;;;;;5040811;28;20020;-66
2023/02/07 10:59:46;;;;;;;8.32;4.07;;;2.80;99.90;;;;;;5044399;28;20029;-65
2023/02/07 11:02:30;;;;;;;5.90;3.67;;;2.90;99.90;;;;;;5038944;28;20021;-67
2023/02/07 11:04:58;;;;;;;9.13;4.30;;;2.90;99.90;;;;;;5037148;28;20522;-66
2023/02/07 11:07:25;;;;;;;5.47;3.50;;;3.00;99.90;;;;;;5019649;28;20427;-65
2023/02/07 11:09:51;;;;;;;7.03;3.92;;;3.10;99.90;;;;;;5036195;28;20025;-66
2023/02/07 11:12:19;;;;;;;7.70;3.30;;;3.10;99.90;;;;;;5043019;28;20091;-65
2023/02/07 11:15:03;;;;;;;6.45;3.75;;;3.20;99.90;;;;;;5046905;28;20025;-66
2023/02/07 11:17:30;;;;;;;;;;;3.30;99.90;;;;;;5039549;28;20036;-66
2023/02/07 11:19:55;;;;;;;8.35;3.58;;;3.40;99.90;;;;;;5045257;28;19909;-68
2023/02/07 11:22:23;;;;;;;8.20;4.07;;;3.40;99.90;;;;;;5038801;28;20044;-66
2023/02/07 11:24:52;;;;;;;6.80;3.45;;;3.50;99.90;;;;;;5039504;28;20021;-65
2023/02/07 11:27:23;;;;;;;8.48;3.95;;;3.50;99.90;;;;;;5038865;28;20408;-66
2023/02/07 11:29:58;;;;;;;6.55;3.28;;;3.50;99.90;;;;;;5042427;28;20509;-67
2023/02/07 11:32:26;;;;;;;6.47;3.20;;;3.50;98.70;;;;;;5042193;28;20033;-65
2023/02/07 11:35:00;;;;;;;6.15;3.78;;;3.50;99.70;;;;;;5046097;28;20040;-66
2023/02/07 11:37:31;;;;;;;6.68;3.45;;;3.50;99.90;;;;;;5029456;28;20142;-67
2023/02/07 11:40:28;;;;;;;6.82;3.75;;;3.50;99.90;;;;;;5044601;28;20186;-65
2023/02/07 11:43:02;;;;;;;7.80;3.50;;;3.50;99.10;;;;;;5030040;28;20069;-66
2023/02/07 11:45:29;;;;;;;;;;;3.50;99.90;;;;;;5037813;28;20032;-66
2023/02/07 11:47:56;;;;;;;7.63;4.13;;;3.50;99.50;;;;;;5043198;28;19943;-66
2023/02/07 11:50:38;;;;;;;6.60;3.88;;;3.50;99.20;;;;;;5038410;28;20029;-65
2023/02/07 11:53:04;;;;;;;9.75;3.85;;;3.40;99.10;;;;;;5037702;28;20113;-66
2023/02/07 11:55:38;;;;;;;5.75;3.30;;;3.40;98.60;;;;;;5042526;28;20095;-65
2023/02/07 11:58:10;;;;;;;9.00;4.32;;;3.40;99.30;;;;;;5046420;28;20104;-66
2023/02/07 12:00:37;;;;;;;7.88;3.40;;;3.40;99.90;;;;;;5025873;28;20025;-65
2023/02/07 12:03:17;;;;;;;6.90;3.63;;;3.40;98.30;;;;;;5041509;28;20124;-66
2023/02/07 12:05:46;;;;;;;6.10;3.25;;;3.50;98.50;;;;;;5039810;28;20380;-66
2023/02/07 12:08:16;;;;;;;8.63;3.90;;;3.40;99.40;;;;;;5042973;28;20029;-66
2023/02/07 12:10:47;;;;;;;7.78;3.53;;;3.50;99.00;;;;;;5042917;28;20500;-65
2023/02/07 12:13:25;;;;;;;8.30;4.13;;;3.60;99.70;;;;;;5040082;28;20396;-67
2023/02/07 12:16:02;;;;;;;7.15;4.13;;;3.60;98.20;;;;;;5038776;28;20079;-64
2023/02/07 12:18:42;;;;;;;5.40;3.05;;;3.50;98.10;;;;;;5047640;28;20035;-66
2023/02/07 12:21:26;;;;;;;7.90;4.50;;;3.50;97.60;;;;;;5040698;28;20056;-66
2023/02/07 12:24:36;;;;;;;7.05;3.80;;;3.60;98.00;;;;;;5051774;28;20025;-65
2023/02/07 12:27:08;;;;;;;11.57;4.00;;;3.50;97.60;;;;;;5013303;28;20541;-65
2023/02/07 12:30:02;;;;;;;6.68;3.47;;;3.50;97.90;;;;;;5049393;28;20557;-65
2023/02/07 12:32:45;;;;;;;6.43;3.78;;;3.60;98.30;;;;;;5045282;28;20048;-66
2023/02/07 12:35:37;;;;;;;5.45;3.08;;;3.60;97.60;;;;;;5051715;28;20021;-64
2023/02/07 12:38:21;;;;;;;8.18;3.65;;;3.60;97.70;;;;;;5033729;28;20407;-64
2023/02/07 12:40:59;;;;;;;8.48;3.97;;;3.70;97.50;;;;;;5011043;28;20049;-64
2023/02/07 12:43:26;;;;;;;7.93;3.03;;;3.70;98.10;;;;;;5042393;28;20555;-65
2023/02/07 12:45:53;;;;;;;6.97;3.45;;;3.80;96.90;;;;;;5043377;28;21599;-65
2023/02/07 12:48:37;;;;;;;5.28;3.22;;;3.80;97.40;;;;;;5047993;28;20025;-65
2023/02/07 12:51:23;;;;;;;5.90;3.05;;;3.90;96.30;;;;;;5041545;28;20071;-66
2023/02/07 12:54:16;;;;;;;7.68;3.80;;;3.90;96.60;;;;;;5049462;28;20075;-68
2023/02/07 12:56:56;;;;;;;6.40;3.42;;;3.90;96.90;;;;;;5046672;28;20024;-67
2023/02/07 12:59:45;;;;;;;6.95;3.35;;;3.90;96.10;;;;;;5068193;22;20136;-63
2023/02/07 13:02:25;;;;;;;8.13;3.35;;;3.90;93.90;;;;;;5030142;28;20028;-63
2023/02/07 13:05:09;;;;;;;5.10;3.15;;;3.90;94.40;;;;;;5049658;28;20078;-65